Time;durP1;ratioP1;P1;durP2;ratioP2;P2;SDS_P1;SDS_P2;PMS_P1;PMS_P2;Temp;Humidity;BMP_temperature;BMP_pressure;BME280_temperature;BME280_humidity;BME280_pressure;Samples;Min_cycle;Max_cycle;Signal;HPM_P1;HPM_P2
2024/02/23 00:02:05;;;;;;;1.07;0.80;;;;;;;;;;6186172;23;20183;-77
2024/02/23 00:04:32;;;;;;;0.80;0.67;;;;;;;;;;6186019;23;20167;-78
2024/02/23 00:07:02;;;;;;;0.50;0.50;;;;;;;;;;6186215;23;20166;-77
2024/02/23 00:09:31;;;;;;;0.70;0.70;;;;;;;;;;6186600;23;20170;-77
2024/02/23 00:11:58;;;;;;;0.60;0.60;;;;;;;;;;6186171;23;20178;-77
2024/02/23 00:14:26;;;;;;;0.63;0.63;;;;;;;;;;6159678;23;20213;-77
2024/02/23 00:16:53;;;;;;;0.77;0.60;;;;;;;;;;6186129;23;20237;-77
2024/02/23 00:19:22;;;;;;;0.60;0.60;;;;;;;;;;6186504;23;20177;-78
2024/02/23 00:21:52;;;;;;;0.53;0.50;;;;;;;;;;6186339;23;20193;-77
2024/02/23 00:24:22;;;;;;;1.17;0.67;;;;;;;;;;6186465;23;20261;-78
2024/02/23 00:26:54;;;;;;;0.60;0.60;;;;;;;;;;6186285;23;20242;-78
2024/02/23 00:29:21;;;;;;;1.10;0.50;;;;;;;;;;6185842;23;20166;-77
2024/02/23 00:31:50;;;;;;;0.60;0.60;;;;;;;;;;6160050;23;20516;-78
2024/02/23 00:34:18;;;;;;;0.60;0.60;;;;;;;;;;6186167;23;20241;-77
2024/02/23 00:36:45;;;;;;;0.60;0.60;;;;;;;;;;6186213;23;20618;-78
2024/02/23 00:39:13;;;;;;;0.50;0.50;;;;;;;;;;6186725;23;20601;-80
2024/02/23 00:41:42;;;;;;;1.53;0.50;;;;;;;;;;6186468;23;20261;-79
2024/02/23 00:44:09;;;;;;;0.50;0.50;;;;;;;;;;6186746;23;20205;-79
2024/02/23 00:46:37;;;;;;;0.60;0.60;;;;;;;;;;6186902;23;20217;-79
2024/02/23 00:49:05;;;;;;;0.50;0.50;;;;;;;;;;6186724;23;20790;-79
2024/02/23 00:51:32;;;;;;;0.50;0.50;;;;;;;;;;6186773;23;20159;-78
2024/02/23 00:53:59;;;;;;;0.53;0.50;;;;;;;;;;6186984;23;20185;-79
2024/02/23 00:56:27;;;;;;;0.50;0.50;;;;;;;;;;6186400;23;20178;-79
2024/02/23 00:59:07;;;;;;;0.60;0.47;;;;;;;;;;6186302;23;20156;-77
2024/02/23 01:01:35;;;;;;;0.90;0.50;;;;;;;;;;6159984;23;20194;-77
2024/02/23 01:04:06;;;;;;;0.70;0.50;;;;;;;;;;6185818;23;20147;-79
2024/02/23 01:06:33;;;;;;;0.47;0.40;;;;;;;;;;6185759;23;20167;-79
2024/02/23 01:09:03;;;;;;;1.17;1.07;;;;;;;;;;6186096;23;20190;-77
2024/02/23 01:11:35;;;;;;;1.30;1.20;;;;;;;;;;6185590;23;20146;-77
2024/02/23 01:14:04;;;;;;;0.60;0.60;;;;;;;;;;6186860;23;20166;-77
2024/02/23 01:16:32;;;;;;;0.50;0.50;;;;;;;;;;6186313;23;20162;-78
2024/02/23 01:19:00;;;;;;;0.50;0.50;;;;;;;;;;6160153;23;20513;-79
2024/02/23 01:21:28;;;;;;;0.40;0.40;;;;;;;;;;6186314;23;20179;-78
2024/02/23 01:23:57;;;;;;;0.50;0.50;;;;;;;;;;6186426;23;20209;-78
2024/02/23 01:26:27;;;;;;;0.50;0.50;;;;;;;;;;6186678;23;20143;-77
2024/02/23 01:28:54;;;;;;;0.50;0.50;;;;;;;;;;6186408;23;20162;-78
2024/02/23 01:31:22;;;;;;;0.60;0.50;;;;;;;;;;6186570;23;20169;-78
2024/02/23 01:33:51;;;;;;;1.00;0.90;;;;;;;;;;6186369;23;20245;-78
2024/02/23 01:36:30;;;;;;;0.80;0.80;;;;;;;;;;6186508;23;20167;-78
2024/02/23 01:39:01;;;;;;;1.17;1.07;;;;;;;;;;6186194;23;20166;-78
2024/02/23 01:41:29;;;;;;;4.47;3.33;;;;;;;;;;6186171;23;20186;-78
2024/02/23 01:43:57;;;;;;;2.47;1.87;;;;;;;;;;6186081;23;20198;-78
2024/02/23 01:46:29;;;;;;;1.10;0.93;;;;;;;;;;6186842;23;20170;-78
2024/02/23 01:49:04;;;;;;;1.30;1.20;;;;;;;;;;6186537;23;20198;-78
2024/02/23 01:51:34;;;;;;;4.53;4.13;;;;;;;;;;6159976;23;20162;-80
2024/02/23 01:54:03;;;;;;;5.00;4.60;;;;;;;;;;6186210;23;20165;-78
2024/02/23 01:56:40;;;;;;;5.13;4.73;;;;;;;;;;6186199;23;20166;-78
2024/02/23 01:59:11;;;;;;;5.50;5.00;;;;;;;;;;6160208;23;20616;-78
2024/02/23 02:01:40;;;;;;;6.20;5.03;;;;;;;;;;6185965;23;20186;-78
2024/02/23 02:04:11;;;;;;;5.17;4.50;;;;;;;;;;6186121;23;20149;-78
2024/02/23 02:06:39;;;;;;;4.00;3.67;;;;;;;;;;6185895;23;20158;-79
2024/02/23 02:09:08;;;;;;;3.87;3.47;;;;;;;;;;6186160;23;20177;-78
2024/02/23 02:11:34;;;;;;;3.30;3.00;;;;;;;;;;6185820;23;20178;-78
2024/02/23 02:14:02;;;;;;;3.50;3.20;;;;;;;;;;6185939;23;20171;-78
2024/02/23 02:16:30;;;;;;;4.30;3.90;;;;;;;;;;6186048;23;20158;-78
2024/02/23 02:18:57;;;;;;;4.20;3.77;;;;;;;;;;6159504;23;20265;-78
2024/02/23 02:21:25;;;;;;;4.07;3.70;;;;;;;;;;6185781;23;20182;-78
2024/02/23 02:23:56;;;;;;;3.57;3.27;;;;;;;;;;6185939;23;20169;-78
2024/02/23 02:26:23;;;;;;;3.30;3.00;;;;;;;;;;6185832;23;20171;-78
2024/02/23 02:28:57;;;;;;;3.40;3.10;;;;;;;;;;6185761;23;20177;-78
2024/02/23 02:31:25;;;;;;;3.10;2.57;;;;;;;;;;6185809;23;20245;-78
2024/02/23 02:33:55;;;;;;;2.63;2.37;;;;;;;;;;6185606;23;20166;-79
2024/02/23 02:36:22;;;;;;;3.23;2.43;;;;;;;;;;6159690;23;20229;-77
2024/02/23 02:38:50;;;;;;;2.30;2.10;;;;;;;;;;6159340;23;20501;-78
2024/02/23 02:41:24;;;;;;;1.80;1.70;;;;;;;;;;6186103;23;20146;-78
2024/02/23 02:43:54;;;;;;;1.40;1.30;;;;;;;;;;6185482;23;20220;-78
2024/02/23 02:46:22;;;;;;;1.30;1.20;;;;;;;;;;6185677;23;20162;-78
2024/02/23 02:48:55;;;;;;;1.27;1.00;;;;;;;;;;6185900;23;20202;-78
2024/02/23 02:51:28;;;;;;;0.60;0.60;;;;;;;;;;6185651;23;20163;-79
2024/02/23 02:53:55;;;;;;;0.50;0.50;;;;;;;;;;6185678;23;20166;-79
2024/02/23 02:56:26;;;;;;;0.40;0.40;;;;;;;;;;6185726;23;20173;-78
2024/02/23 02:58:53;;;;;;;1.03;0.40;;;;;;;;;;6185723;23;20157;-78
2024/02/23 03:01:20;;;;;;;0.30;0.30;;;;;;;;;;6159658;23;20166;-78
2024/02/23 03:03:50;;;;;;;0.30;0.30;;;;;;;;;;6185513;23;20167;-78
2024/02/23 03:06:18;;;;;;;0.30;0.30;;;;;;;;;;6185643;23;20171;-78
2024/02/23 03:08:45;;;;;;;0.27;0.20;;;;;;;;;;6185607;23;20177;-78
2024/02/23 03:11:13;;;;;;;0.30;0.30;;;;;;;;;;6159176;23;20170;-79
2024/02/23 03:13:43;;;;;;;0.20;0.20;;;;;;;;;;6185893;23;20261;-78
2024/02/23 03:16:17;;;;;;;0.23;0.23;;;;;;;;;;6185740;23;20174;-78
2024/02/23 03:18:44;;;;;;;0.33;0.30;;;;;;;;;;6185605;23;20242;-78
2024/02/23 03:21:13;;;;;;;0.30;0.30;;;;;;;;;;6185333;23;20170;-78
2024/02/23 03:23:46;;;;;;;0.30;0.30;;;;;;;;;;6174276;23;20594;-78
2024/02/23 03:26:16;;;;;;;0.30;0.30;;;;;;;;;;6160811;23;20170;-78
2024/02/23 03:28:43;;;;;;;0.20;0.20;;;;;;;;;;6185520;23;20163;-78
2024/02/23 03:31:12;;;;;;;0.40;0.40;;;;;;;;;;6185866;23;20163;-78
2024/02/23 03:33:40;;;;;;;0.77;0.40;;;;;;;;;;6186079;23;20172;-78
2024/02/23 03:36:08;;;;;;;0.43;0.23;;;;;;;;;;6185690;23;20158;-79
2024/02/23 03:38:37;;;;;;;0.70;0.40;;;;;;;;;;6185741;23;20163;-78
2024/02/23 03:41:06;;;;;;;0.50;0.30;;;;;;;;;;6185629;23;20166;-79
2024/02/23 03:43:34;;;;;;;1.10;0.40;;;;;;;;;;6185233;23;20197;-78
2024/02/23 03:46:01;;;;;;;0.50;0.50;;;;;;;;;;6159915;23;20171;-79
2024/02/23 03:48:32;;;;;;;1.13;1.00;;;;;;;;;;6185710;23;20233;-79
2024/02/23 03:51:04;;;;;;;1.63;1.53;;;;;;;;;;6186064;23;20169;-78
2024/02/23 03:53:32;;;;;;;2.27;2.07;;;;;;;;;;6185680;23;20605;-79
2024/02/23 03:55:59;;;;;;;5.33;2.93;;;;;;;;;;6185471;23;20166;-78
2024/02/23 03:58:26;;;;;;;4.90;4.50;;;;;;;;;;6185061;23;20182;-78
2024/02/23 04:00:53;;;;;;;6.20;5.70;;;;;;;;;;6186067;23;20241;-79
2024/02/23 04:03:21;;;;;;;7.13;6.50;;;;;;;;;;6187425;23;20186;-78
2024/02/23 04:05:48;;;;;;;7.33;6.70;;;;;;;;;;6187215;23;20170;-78
2024/02/23 04:08:16;;;;;;;7.40;6.77;;;;;;;;;;6187342;23;20167;-78
2024/02/23 04:10:43;;;;;;;7.80;7.00;;;;;;;;;;6187191;23;20185;-79
2024/02/23 04:13:13;;;;;;;7.50;6.83;;;;;;;;;;6186847;23;20237;-78
2024/02/23 04:15:40;;;;;;;7.13;6.43;;;;;;;;;;6175215;23;20163;-78
2024/02/23 04:18:08;;;;;;;8.40;7.60;;;;;;;;;;6187046;23;20162;-78
2024/02/23 04:20:36;;;;;;;6.80;6.20;;;;;;;;;;6187093;23;20186;-78
2024/02/23 04:23:04;;;;;;;4.67;4.27;;;;;;;;;;6186698;23;20265;-78
2024/02/23 04:25:31;;;;;;;3.30;3.00;;;;;;;;;;6187224;23;20237;-77
2024/02/23 04:28:01;;;;;;;3.63;3.10;;;;;;;;;;6161046;23;20648;-78
2024/02/23 04:30:30;;;;;;;3.27;2.97;;;;;;;;;;6186896;23;20170;-78
2024/02/23 04:32:57;;;;;;;3.10;2.50;;;;;;;;;;6160870;23;20217;-78
2024/02/23 04:35:26;;;;;;;2.70;2.50;;;;;;;;;;6186763;23;20212;-78
2024/02/23 04:37:53;;;;;;;2.60;2.40;;;;;;;;;;6186757;23;20169;-78
2024/02/23 04:40:21;;;;;;;2.43;2.23;;;;;;;;;;6186693;23;20659;-78
2024/02/23 04:42:47;;;;;;;2.40;2.17;;;;;;;;;;6180268;23;20198;-78
2024/02/23 04:45:14;;;;;;;2.60;2.40;;;;;;;;;;6155370;23;20182;-78
2024/02/23 04:47:41;;;;;;;1.93;1.83;;;;;;;;;;6186791;23;20238;-78
2024/02/23 04:50:09;;;;;;;2.37;1.77;;;;;;;;;;6186492;23;20170;-78
2024/02/23 04:52:37;;;;;;;1.80;1.70;;;;;;;;;;6186508;23;20170;-78
2024/02/23 04:55:04;;;;;;;1.80;1.50;;;;;;;;;;6186673;23;20169;-79
2024/02/23 04:57:32;;;;;;;1.67;1.57;;;;;;;;;;6186902;23;20189;-78
2024/02/23 04:59:59;;;;;;;1.30;1.20;;;;;;;;;;6186330;23;20613;-78
2024/02/23 05:02:29;;;;;;;0.90;0.90;;;;;;;;;;6186780;23;20218;-78
2024/02/23 05:04:57;;;;;;;0.97;0.80;;;;;;;;;;6186589;23;20151;-78
2024/02/23 05:07:25;;;;;;;1.30;0.90;;;;;;;;;;6186524;23;20605;-78
2024/02/23 05:09:52;;;;;;;0.83;0.83;;;;;;;;;;6159930;23;20175;-78
2024/02/23 05:12:20;;;;;;;0.73;0.73;;;;;;;;;;6186288;23;20244;-78
2024/02/23 05:14:50;;;;;;;0.80;0.80;;;;;;;;;;6185160;23;20210;-78
2024/02/23 05:17:19;;;;;;;1.13;0.80;;;;;;;;;;6185207;23;20226;-78
2024/02/23 05:19:46;;;;;;;1.00;0.90;;;;;;;;;;6159723;23;20245;-78
2024/02/23 05:22:14;;;;;;;1.00;0.60;;;;;;;;;;6185953;23;20182;-78
2024/02/23 05:24:42;;;;;;;0.70;0.70;;;;;;;;;;6185843;23;20250;-78
2024/02/23 05:27:10;;;;;;;0.60;0.50;;;;;;;;;;6160011;23;20537;-78
2024/02/23 05:29:37;;;;;;;0.50;0.50;;;;;;;;;;6185801;23;20296;-78
2024/02/23 05:32:05;;;;;;;0.63;0.43;;;;;;;;;;6185775;23;20194;-78
2024/02/23 05:34:35;;;;;;;0.67;0.47;;;;;;;;;;6158636;23;20174;-78
2024/02/23 05:37:06;;;;;;;0.37;0.37;;;;;;;;;;6186222;23;20150;-78
2024/02/23 05:39:33;;;;;;;0.87;0.50;;;;;;;;;;6185747;23;20170;-78
2024/02/23 05:42:08;;;;;;;0.40;0.40;;;;;;;;;;6185640;23;20221;-78
2024/02/23 05:44:36;;;;;;;0.30;0.30;;;;;;;;;;6185458;23;20205;-78
2024/02/23 05:47:04;;;;;;;0.93;0.40;;;;;;;;;;6185672;23;20245;-78
2024/02/23 05:49:40;;;;;;;0.37;0.37;;;;;;;;;;6185703;23;20170;-78
2024/02/23 05:52:10;;;;;;;0.70;0.50;;;;;;;;;;6185484;23;20175;-78
2024/02/23 05:54:37;;;;;;;0.43;0.40;;;;;;;;;;6185377;23;20250;-77
2024/02/23 05:57:08;;;;;;;0.30;0.30;;;;;;;;;;6185846;23;20439;-77
2024/02/23 05:59:36;;;;;;;0.60;0.50;;;;;;;;;;6185243;23;20233;-77
2024/02/23 06:02:06;;;;;;;0.40;0.40;;;;;;;;;;6182567;23;20244;-77
2024/02/23 06:04:34;;;;;;;0.50;0.30;;;;;;;;;;6182228;23;20169;-79
2024/02/23 06:07:01;;;;;;;2.20;1.10;;;;;;;;;;6184165;23;20190;-79
2024/02/23 06:09:29;;;;;;;3.40;1.60;;;;;;;;;;6134152;23;20201;-79
2024/02/23 06:11:57;;;;;;;2.80;1.10;;;;;;;;;;6184346;23;20673;-79
2024/02/23 06:14:24;;;;;;;0.63;0.60;;;;;;;;;;6161296;23;20158;-80
2024/02/23 06:16:52;;;;;;;0.63;0.40;;;;;;;;;;6139359;23;20174;-80
2024/02/23 06:19:19;;;;;;;1.77;1.10;;;;;;;;;;6163097;23;20180;-80
2024/02/23 06:21:47;;;;;;;2.13;1.50;;;;;;;;;;6189314;23;20227;-80
2024/02/23 06:24:16;;;;;;;3.27;2.10;;;;;;;;;;6188454;23;20182;-80
2024/02/23 06:26:46;;;;;;;5.87;3.20;;;;;;;;;;6163025;23;20171;-80
2024/02/23 06:29:14;;;;;;;8.40;3.93;;;;;;;;;;6162596;23;20200;-80
2024/02/23 06:31:48;;;;;;;5.00;2.50;;;;;;;;;;6177556;23;20166;-80
2024/02/23 06:34:16;;;;;;;3.30;1.80;;;;;;;;;;6162966;23;20190;-80
2024/02/23 06:36:43;;;;;;;3.73;1.57;;;;;;;;;;6163174;23;20166;-80
2024/02/23 06:39:11;;;;;;;6.00;2.83;;;;;;;;;;6189048;23;20162;-80
2024/02/23 06:41:41;;;;;;;5.30;2.00;;;;;;;;;;6163006;23;20174;-80
2024/02/23 06:44:09;;;;;;;0.90;0.60;;;;;;;;;;6162689;23;20229;-80
2024/02/23 06:46:37;;;;;;;0.67;0.57;;;;;;;;;;6138600;23;20636;-80
2024/02/23 06:49:04;;;;;;;1.47;0.90;;;;;;;;;;6163527;23;20225;-80
2024/02/23 06:51:32;;;;;;;0.67;0.67;;;;;;;;;;6188889;23;20237;-80
2024/02/23 06:54:03;;;;;;;0.83;0.80;;;;;;;;;;6163614;23;20162;-80
2024/02/23 06:56:30;;;;;;;1.20;0.87;;;;;;;;;;6162410;23;20166;-80
2024/02/23 06:58:58;;;;;;;1.77;0.90;;;;;;;;;;6162177;23;20182;-80
2024/02/23 07:01:27;;;;;;;1.03;1.00;;;;;;;;;;6162262;23;20229;-80
2024/02/23 07:03:54;;;;;;;1.23;1.13;;;;;;;;;;6161599;23;20197;-80
2024/02/23 07:06:21;;;;;;;2.50;1.30;;;;;;;;;;6161942;23;20166;-79
2024/02/23 07:08:48;;;;;;;1.57;1.30;;;;;;;;;;6161810;23;20169;-80
2024/02/23 07:11:16;;;;;;;1.50;1.30;;;;;;;;;;6162366;23;20166;-80
2024/02/23 07:13:44;;;;;;;1.47;1.20;;;;;;;;;;6137514;23;20176;-79
2024/02/23 07:16:12;;;;;;;3.57;3.00;;;;;;;;;;6162332;23;20192;-80
2024/02/23 07:18:40;;;;;;;4.67;4.17;;;;;;;;;;6162074;23;20197;-80
2024/02/23 07:21:08;;;;;;;13.80;7.73;;;;;;;;;;6188952;23;20155;-80
2024/02/23 07:23:35;;;;;;;9.53;7.53;;;;;;;;;;6162925;23;20189;-80
2024/02/23 07:26:02;;;;;;;14.63;9.37;;;;;;;;;;6162948;23;20163;-80
2024/02/23 07:28:30;;;;;;;8.07;6.93;;;;;;;;;;6163081;23;20629;-80
2024/02/23 07:30:57;;;;;;;7.53;6.10;;;;;;;;;;6162054;23;20170;-80
2024/02/23 07:33:24;;;;;;;9.10;6.60;;;;;;;;;;6162601;23;20245;-82
2024/02/23 07:35:52;;;;;;;12.83;9.40;;;;;;;;;;6138573;23;20174;-81
2024/02/23 07:38:19;;;;;;;4.83;3.97;;;;;;;;;;6140127;23;20163;-80
2024/02/23 07:40:46;;;;;;;11.03;8.50;;;;;;;;;;6163900;23;20177;-80
2024/02/23 07:43:13;;;;;;;9.43;7.97;;;;;;;;;;6163949;23;20194;-81
2024/02/23 07:45:42;;;;;;;5.13;3.20;;;;;;;;;;6159012;23;20198;-81
2024/02/23 07:48:09;;;;;;;2.93;2.30;;;;;;;;;;6183585;23;20691;-80
2024/02/23 07:50:36;;;;;;;4.47;3.40;;;;;;;;;;6139844;23;20167;-81
2024/02/23 07:53:04;;;;;;;5.50;4.53;;;;;;;;;;6140640;23;20171;-80
2024/02/23 07:55:33;;;;;;;5.30;4.80;;;;;;;;;;6164790;23;20230;-80
2024/02/23 07:58:01;;;;;;;5.03;4.43;;;;;;;;;;6164037;23;20166;-80
2024/02/23 08:00:29;;;;;;;3.40;3.10;;;;;;;;;;6163823;23;20171;-81
2024/02/23 08:02:59;;;;;;;3.10;2.80;;;;;;;;;;6164920;23;20194;-80
2024/02/23 08:05:26;;;;;;;2.70;2.50;;;;;;;;;;6189919;23;20166;-80
2024/02/23 08:07:53;;;;;;;3.53;2.80;;;;;;;;;;6190765;23;20237;-80
2024/02/23 08:10:22;;;;;;;2.87;2.40;;;;;;;;;;6140072;23;20178;-80
2024/02/23 08:12:49;;;;;;;2.77;2.00;;;;;;;;;;6164656;23;20672;-80
2024/02/23 08:15:16;;;;;;;2.20;2.00;;;;;;;;;;6191067;23;20240;-80
2024/02/23 08:17:43;;;;;;;3.40;2.70;;;;;;;;;;6139081;23;20178;-81
2024/02/23 08:20:13;;;;;;;3.07;2.00;;;;;;;;;;6164006;23;20162;-80
2024/02/23 08:22:41;;;;;;;2.60;2.40;;;;;;;;;;6140804;23;20205;-82
2024/02/23 08:25:08;;;;;;;4.00;3.60;;;;;;;;;;6141135;23;20253;-81
2024/02/23 08:27:43;;;;;;;15.70;14.40;;;;;;;;;;6164993;23;20162;-81
2024/02/23 08:30:13;;;;;;;17.07;15.77;;;;;;;;;;6190417;23;20166;-82
2024/02/23 08:32:42;;;;;;;13.57;12.37;;;;;;;;;;6164604;23;20174;-80
2024/02/23 08:35:11;;;;;;;4.20;3.90;;;;;;;;;;6164750;23;20675;-80
2024/02/23 08:37:39;;;;;;;1.87;1.70;;;;;;;;;;6164117;23;20201;-82
2024/02/23 08:40:08;;;;;;;2.47;1.80;;;;;;;;;;6151980;23;20167;-80
2024/02/23 08:42:38;;;;;;;1.90;1.50;;;;;;;;;;6138992;23;20193;-81
2024/02/23 08:45:06;;;;;;;2.93;2.47;;;;;;;;;;6164804;23;20177;-80
2024/02/23 08:47:35;;;;;;;2.10;1.77;;;;;;;;;;6164377;23;20170;-80
2024/02/23 08:50:04;;;;;;;2.80;1.70;;;;;;;;;;6190526;23;20159;-80
2024/02/23 08:52:33;;;;;;;4.20;1.70;;;;;;;;;;6191339;23;20163;-80
2024/02/23 08:55:00;;;;;;;2.50;1.30;;;;;;;;;;6164674;23;20164;-79
2024/02/23 08:57:31;;;;;;;2.13;1.43;;;;;;;;;;6193979;23;20166;-81
2024/02/23 09:00:04;;;;;;;1.40;1.30;;;;;;;;;;6168745;23;20167;-80
2024/02/23 09:02:42;;;;;;;2.40;1.93;;;;;;;;;;6192982;23;20166;-80
2024/02/23 09:05:14;;;;;;;1.23;1.13;;;;;;;;;;6165846;23;20217;-80
2024/02/23 09:07:46;;;;;;;1.20;0.93;;;;;;;;;;6167223;23;20175;-80
2024/02/23 09:10:17;;;;;;;1.00;0.90;;;;;;;;;;6143596;23;20179;-80
2024/02/23 09:12:48;;;;;;;1.33;0.80;;;;;;;;;;6168533;23;20254;-80
2024/02/23 09:15:19;;;;;;;1.10;0.80;;;;;;;;;;6195694;23;20196;-79
2024/02/23 09:17:48;;;;;;;1.13;0.90;;;;;;;;;;6144865;23;20188;-80
2024/02/23 09:20:17;;;;;;;1.17;0.50;;;;;;;;;;6170139;23;20253;-81
2024/02/23 09:22:49;;;;;;;0.60;0.60;;;;;;;;;;6173242;23;20153;-81
2024/02/23 09:25:23;;;;;;;0.77;0.77;;;;;;;;;;6150717;23;20143;-80
2024/02/23 09:27:56;;;;;;;1.43;0.80;;;;;;;;;;6171439;23;20175;-80
2024/02/23 09:30:24;;;;;;;2.17;0.70;;;;;;;;;;6164624;23;20176;-81
2024/02/23 09:32:55;;;;;;;1.33;0.73;;;;;;;;;;6170582;23;20160;-80
2024/02/23 09:35:24;;;;;;;0.80;0.80;;;;;;;;;;6194488;23;20178;-80
2024/02/23 09:37:55;;;;;;;0.80;0.70;;;;;;;;;;6167378;23;20247;-80
2024/02/23 09:40:31;;;;;;;1.03;0.80;;;;;;;;;;6167474;23;20165;-79
2024/02/23 09:43:00;;;;;;;1.67;0.80;;;;;;;;;;6142265;23;20261;-80
2024/02/23 09:45:32;;;;;;;0.50;0.50;;;;;;;;;;6167397;23;20173;-78
2024/02/23 09:48:00;;;;;;;0.80;0.60;;;;;;;;;;6193029;23;20168;-80
2024/02/23 09:50:28;;;;;;;0.97;0.80;;;;;;;;;;6167488;23;20259;-80
2024/02/23 09:53:01;;;;;;;0.73;0.73;;;;;;;;;;6193589;23;20177;-82
2024/02/23 09:55:48;;;;;;;1.10;0.90;;;;;;;;;;6166478;23;20168;-80
2024/02/23 09:58:17;;;;;;;1.00;0.80;;;;;;;;;;6142023;23;20176;-80
2024/02/23 10:00:48;;;;;;;0.83;0.83;;;;;;;;;;6165678;23;20164;-82
2024/02/23 10:03:16;;;;;;;0.83;0.70;;;;;;;;;;6165617;23;20528;-80
2024/02/23 10:05:54;;;;;;;0.87;0.70;;;;;;;;;;6168222;23;20156;-80
2024/02/23 10:08:25;;;;;;;0.57;0.50;;;;;;;;;;6191664;23;20147;-80
2024/02/23 10:10:52;;;;;;;0.90;0.60;;;;;;;;;;6165302;23;20175;-80
2024/02/23 10:13:20;;;;;;;0.87;0.70;;;;;;;;;;6166170;23;20204;-81
2024/02/23 10:15:48;;;;;;;3.23;2.37;;;;;;;;;;6165788;23;20173;-80
2024/02/23 10:18:43;;;;;;;1.00;0.83;;;;;;;;;;6147080;23;20206;-80
2024/02/23 10:21:13;;;;;;;1.53;0.93;;;;;;;;;;6167297;23;20149;-81
2024/02/23 10:23:44;;;;;;;1.13;1.00;;;;;;;;;;6166383;23;20188;-80
2024/02/23 10:26:18;;;;;;;0.80;0.80;;;;;;;;;;6166300;23;20186;-80
2024/02/23 10:28:47;;;;;;;1.70;1.27;;;;;;;;;;6166218;23;20251;-80
2024/02/23 10:31:24;;;;;;;1.70;1.30;;;;;;;;;;6166911;23;20184;-80
2024/02/23 10:33:58;;;;;;;1.60;1.50;;;;;;;;;;6193582;23;20193;-80
2024/02/23 10:36:30;;;;;;;2.63;1.70;;;;;;;;;;6193442;23;20166;-80
2024/02/23 10:38:59;;;;;;;1.70;1.60;;;;;;;;;;6167099;23;20176;-80
2024/02/23 10:41:34;;;;;;;1.67;1.43;;;;;;;;;;6168057;23;20229;-80
2024/02/23 10:44:04;;;;;;;1.30;1.20;;;;;;;;;;6193478;23;20190;-80
2024/02/23 10:46:33;;;;;;;1.10;1.00;;;;;;;;;;6194053;23;20168;-80
2024/02/23 10:49:04;;;;;;;1.07;1.07;;;;;;;;;;6167863;23;20279;-81
2024/02/23 10:51:35;;;;;;;1.70;1.60;;;;;;;;;;6166481;23;20698;-80
2024/02/23 10:54:11;;;;;;;1.80;1.40;;;;;;;;;;6193332;23;20165;-81
2024/02/23 10:56:39;;;;;;;1.53;1.10;;;;;;;;;;6167013;23;20196;-80
2024/02/23 10:59:08;;;;;;;0.70;0.70;;;;;;;;;;6191617;23;20174;-80
2024/02/23 11:01:36;;;;;;;0.70;0.57;;;;;;;;;;6165757;23;20216;-80
2024/02/23 11:04:04;;;;;;;0.80;0.80;;;;;;;;;;6168108;23;20184;-80
2024/02/23 11:06:36;;;;;;;0.67;0.67;;;;;;;;;;6165824;23;20630;-80
2024/02/23 11:09:10;;;;;;;1.90;0.77;;;;;;;;;;6166025;23;20255;-81
2024/02/23 11:11:38;;;;;;;0.70;0.70;;;;;;;;;;6168570;23;20189;-80
2024/02/23 11:14:09;;;;;;;1.13;1.03;;;;;;;;;;6168024;23;20233;-80
2024/02/23 11:16:42;;;;;;;1.30;1.20;;;;;;;;;;6170336;23;20238;-80
2024/02/23 11:19:14;;;;;;;1.40;1.30;;;;;;;;;;6168157;23;20228;-80
2024/02/23 11:21:54;;;;;;;1.30;1.20;;;;;;;;;;6195093;23;20161;-80
2024/02/23 11:24:28;;;;;;;1.30;1.20;;;;;;;;;;6195220;23;20204;-80
2024/02/23 11:26:57;;;;;;;1.37;1.27;;;;;;;;;;6169245;23;20173;-80
2024/02/23 11:29:36;;;;;;;1.27;1.10;;;;;;;;;;6168014;23;20606;-80
2024/02/23 11:32:19;;;;;;;1.20;1.10;;;;;;;;;;6194375;23;20152;-80
2024/02/23 11:35:01;;;;;;;0.97;0.97;;;;;;;;;;6167753;23;20165;-80
2024/02/23 11:37:31;;;;;;;1.13;1.00;;;;;;;;;;6144151;23;20160;-80
2024/02/23 11:40:03;;;;;;;1.50;1.40;;;;;;;;;;6167767;23;20180;-80
2024/02/23 11:42:32;;;;;;;1.43;1.17;;;;;;;;;;6167152;23;20195;-80
2024/02/23 11:45:05;;;;;;;2.90;1.20;;;;;;;;;;6167961;23;20721;-80
2024/02/23 11:47:33;;;;;;;1.20;1.10;;;;;;;;;;6168420;23;20144;-81
2024/02/23 11:50:07;;;;;;;1.00;1.00;;;;;;;;;;6192022;23;20173;-80
2024/02/23 11:52:35;;;;;;;1.50;1.20;;;;;;;;;;6168041;23;20155;-81
2024/02/23 11:55:05;;;;;;;1.30;1.20;;;;;;;;;;6190984;23;20169;-81
2024/02/23 11:57:39;;;;;;;3.63;1.50;;;;;;;;;;6192973;23;20178;-81
2024/02/23 12:00:14;;;;;;;1.40;1.30;;;;;;;;;;6143942;23;20257;-81
2024/02/23 12:02:50;;;;;;;1.73;1.50;;;;;;;;;;6194942;23;20159;-81
2024/02/23 12:05:57;;;;;;;1.57;1.40;;;;;;;;;;6131327;23;20204;-81
2024/02/23 12:08:30;;;;;;;1.73;1.60;;;;;;;;;;6131519;23;20171;-81
2024/02/23 12:11:03;;;;;;;1.70;1.40;;;;;;;;;;6107484;23;20192;-80
2024/02/23 12:13:32;;;;;;;1.40;1.30;;;;;;;;;;6106890;23;20168;-80
2024/02/23 12:16:00;;;;;;;1.90;1.60;;;;;;;;;;6130233;23;20188;-81
2024/02/23 12:18:32;;;;;;;1.80;1.70;;;;;;;;;;6130030;23;20163;-80
2024/02/23 12:21:06;;;;;;;1.63;1.40;;;;;;;;;;6129208;23;20627;-81
2024/02/23 12:23:44;;;;;;;1.50;1.40;;;;;;;;;;6130611;23;20180;-81
2024/02/23 12:26:13;;;;;;;1.90;1.80;;;;;;;;;;6130242;23;20168;-81
2024/02/23 12:28:41;;;;;;;2.10;1.90;;;;;;;;;;6129546;23;20164;-81
2024/02/23 12:31:09;;;;;;;2.40;2.20;;;;;;;;;;6128695;23;20168;-80
2024/02/23 12:33:41;;;;;;;1.87;1.77;;;;;;;;;;6105232;23;20259;-80
2024/02/23 12:36:11;;;;;;;2.10;1.87;;;;;;;;;;6130101;23;20168;-82
2024/02/23 12:38:39;;;;;;;2.47;2.27;;;;;;;;;;6129772;23;20174;-81
2024/02/23 12:41:07;;;;;;;2.17;2.00;;;;;;;;;;6130316;23;20180;-80
2024/02/23 12:43:37;;;;;;;2.50;2.00;;;;;;;;;;6159633;23;20289;-81
2024/02/23 12:46:14;;;;;;;1.90;1.80;;;;;;;;;;6191626;23;20147;-81
2024/02/23 12:48:42;;;;;;;2.40;2.20;;;;;;;;;;6140928;23;20189;-80
2024/02/23 12:51:10;;;;;;;12.17;10.93;;;;;;;;;;6140201;23;20195;-80
2024/02/23 12:53:38;;;;;;;6.07;5.47;;;;;;;;;;6164925;23;20166;-81
2024/02/23 12:56:08;;;;;;;12.57;8.60;;;;;;;;;;6167139;23;20229;-80
2024/02/23 12:58:36;;;;;;;42.13;28.57;;;;;;;;;;6164615;23;20177;-80
2024/02/23 13:01:05;;;;;;;10.37;8.90;;;;;;;;;;6165501;23;20241;-81
2024/02/23 13:03:36;;;;;;;10.80;9.70;;;;;;;;;;6164511;23;20713;-81
2024/02/23 13:06:05;;;;;;;3.77;3.47;;;;;;;;;;6166186;23;20225;-80
2024/02/23 13:08:34;;;;;;;2.70;2.50;;;;;;;;;;6166294;23;20170;-81
2024/02/23 13:11:03;;;;;;;2.67;2.47;;;;;;;;;;6191065;23;20166;-81
2024/02/23 13:13:33;;;;;;;3.60;3.40;;;;;;;;;;6191895;23;20239;-81
2024/02/23 13:16:02;;;;;;;3.10;2.80;;;;;;;;;;6140748;23;20197;-81
2024/02/23 13:18:30;;;;;;;2.70;2.50;;;;;;;;;;6140917;23;20174;-81
2024/02/23 13:20:58;;;;;;;2.80;2.60;;;;;;;;;;6164469;23;20166;-81
2024/02/23 13:23:25;;;;;;;3.20;2.60;;;;;;;;;;6141185;23;20175;-80
2024/02/23 13:25:58;;;;;;;3.30;3.00;;;;;;;;;;6164991;23;20194;-81
2024/02/23 13:28:26;;;;;;;4.13;3.73;;;;;;;;;;6165410;23;20225;-82
2024/02/23 13:30:57;;;;;;;3.20;2.90;;;;;;;;;;6165960;23;20194;-80
2024/02/23 13:33:26;;;;;;;2.50;2.27;;;;;;;;;;6164569;23;20189;-80
2024/02/23 13:35:54;;;;;;;3.63;2.10;;;;;;;;;;6141722;23;20249;-81
2024/02/23 13:38:25;;;;;;;2.47;2.27;;;;;;;;;;6165092;23;20673;-80
2024/02/23 13:40:59;;;;;;;2.40;2.20;;;;;;;;;;6166124;23;20190;-81
2024/02/23 13:43:29;;;;;;;2.50;2.20;;;;;;;;;;6165553;23;20232;-80
2024/02/23 13:45:56;;;;;;;2.83;2.37;;;;;;;;;;6143053;23;20190;-80
2024/02/23 13:48:24;;;;;;;2.30;2.10;;;;;;;;;;6117944;23;20201;-81
2024/02/23 13:51:03;;;;;;;2.50;2.13;;;;;;;;;;6165704;23;20165;-81
2024/02/23 13:53:33;;;;;;;2.70;2.50;;;;;;;;;;6166152;23;20186;-81
2024/02/23 13:56:00;;;;;;;2.97;2.47;;;;;;;;;;6164632;23;20167;-81
2024/02/23 13:58:32;;;;;;;2.40;2.20;;;;;;;;;;6164836;23;20167;-81
2024/02/23 14:01:00;;;;;;;3.00;2.10;;;;;;;;;;6190517;23;20208;-80
2024/02/23 14:03:30;;;;;;;2.50;2.30;;;;;;;;;;6140240;23;20195;-81
2024/02/23 14:05:58;;;;;;;2.97;2.53;;;;;;;;;;6165057;23;20190;-81
2024/02/23 14:08:33;;;;;;;2.70;2.20;;;;;;;;;;6165575;23;20170;-80
2024/02/23 14:11:02;;;;;;;2.73;2.53;;;;;;;;;;6164597;23;20168;-80
2024/02/23 14:13:32;;;;;;;4.87;3.10;;;;;;;;;;6188315;23;20170;-81
2024/02/23 14:16:00;;;;;;;2.53;2.33;;;;;;;;;;6164613;23;20216;-80
2024/02/23 14:18:28;;;;;;;2.63;2.43;;;;;;;;;;6165205;23;20166;-81
2024/02/23 14:20:56;;;;;;;3.23;2.93;;;;;;;;;;6164273;23;20166;-80
2024/02/23 14:23:27;;;;;;;3.03;2.73;;;;;;;;;;6165753;23;20613;-80
2024/02/23 14:25:55;;;;;;;3.30;2.63;;;;;;;;;;6164742;23;20217;-81
2024/02/23 14:28:22;;;;;;;2.93;2.70;;;;;;;;;;6166513;23;20166;-81
2024/02/23 14:30:50;;;;;;;3.77;3.40;;;;;;;;;;6190564;23;20197;-79
2024/02/23 14:33:23;;;;;;;2.67;2.37;;;;;;;;;;6163870;23;20605;-80
2024/02/23 14:35:51;;;;;;;4.90;3.23;;;;;;;;;;6138768;23;20170;-80
2024/02/23 14:38:24;;;;;;;2.30;2.10;;;;;;;;;;6163277;23;20246;-80
2024/02/23 14:40:52;;;;;;;2.30;2.10;;;;;;;;;;6138547;23;20174;-80
2024/02/23 14:43:19;;;;;;;2.57;1.93;;;;;;;;;;6162556;23;20194;-81
2024/02/23 14:45:46;;;;;;;2.47;2.17;;;;;;;;;;6188304;23;20186;-81
2024/02/23 14:48:14;;;;;;;4.43;3.83;;;;;;;;;;6162655;23;20189;-81
2024/02/23 14:50:42;;;;;;;4.70;4.03;;;;;;;;;;6138293;23;20596;-80
2024/02/23 14:53:11;;;;;;;3.17;2.87;;;;;;;;;;6189259;23;20185;-80
2024/02/23 14:55:40;;;;;;;3.37;3.07;;;;;;;;;;6164049;23;20174;-80
2024/02/23 14:58:07;;;;;;;3.40;3.10;;;;;;;;;;6189845;23;20167;-80